Terminal Aerodrome Forecast
Issued by NWS

Home | Current Version | Previous Version | Graphics & Text | Print | Product List | Glossary Off
Versions: 1 2 3 4 5 6 7 8 9 10 11 12 13 14 15 16

000
FTUS43 KGRB 031450 AAA
TAFMTW
TAF AMD
KMTW 031450Z 0315/0412 15005KT P6SM SCT010 BKN020
      TEMPO 0315/0318 BKN010
     FM032200 05005KT P6SM VCSH BKN030
     FM040100 04004KT P6SM SCT040
     FM040600 VRB02KT 3SM BR SCT004
      TEMPO 0408/0412 1SM BR BKN004=

USA.gov is the U.S. government's official web portal to all federal, state and local government web resources and services.